sensor_id;sensor_type;location;lat;lon;timestamp;temperature;humidity
49579;DHT22;35483;50.828;3.228;2023-03-15T00:01:31;6.50;99.90
49579;DHT22;35483;50.828;3.228;2023-03-15T00:03:57;6.50;99.90
49579;DHT22;35483;50.828;3.228;2023-03-15T00:06:24;6.50;99.90
49579;DHT22;35483;50.828;3.228;2023-03-15T00:08:50;6.40;99.90
49579;DHT22;35483;50.828;3.228;2023-03-15T00:11:17;6.30;99.90
49579;DHT22;35483;50.828;3.228;2023-03-15T00:13:46;6.30;99.90
49579;DHT22;35483;50.828;3.228;2023-03-15T00:16:14;6.30;99.90
49579;DHT22;35483;50.828;3.228;2023-03-15T00:18:48;6.20;99.90
49579;DHT22;35483;50.828;3.228;2023-03-15T00:21:14;6.20;99.90
49579;DHT22;35483;50.828;3.228;2023-03-15T00:23:41;6.20;99.90
49579;DHT22;35483;50.828;3.228;2023-03-15T00:26:07;6.10;99.90
49579;DHT22;35483;50.828;3.228;2023-03-15T00:28:33;6.10;99.90
49579;DHT22;35483;50.828;3.228;2023-03-15T00:31:06;6.10;99.90
49579;DHT22;35483;50.828;3.228;2023-03-15T00:33:34;6.10;99.90
49579;DHT22;35483;50.828;3.228;2023-03-15T00:36:04;6.10;99.90
49579;DHT22;35483;50.828;3.228;2023-03-15T00:38:32;6.10;99.90
49579;DHT22;35483;50.828;3.228;2023-03-15T00:41:03;6.10;99.90
49579;DHT22;35483;50.828;3.228;2023-03-15T00:43:30;6.20;99.90
49579;DHT22;35483;50.828;3.228;2023-03-15T00:45:57;6.30;99.90
49579;DHT22;35483;50.828;3.228;2023-03-15T00:48:24;6.40;99.90
49579;DHT22;35483;50.828;3.228;2023-03-15T00:50:51;6.40;99.90
49579;DHT22;35483;50.828;3.228;2023-03-15T00:53:17;6.50;99.90
49579;DHT22;35483;50.828;3.228;2023-03-15T00:55:43;6.50;99.90
49579;DHT22;35483;50.828;3.228;2023-03-15T00:58:10;6.60;99.90
49579;DHT22;35483;50.828;3.228;2023-03-15T01:00:37;6.60;99.90
49579;DHT22;35483;50.828;3.228;2023-03-15T01:03:03;6.60;99.90
49579;DHT22;35483;50.828;3.228;2023-03-15T01:05:30;6.50;99.90
49579;DHT22;35483;50.828;3.228;2023-03-15T01:07:56;6.60;99.90
49579;DHT22;35483;50.828;3.228;2023-03-15T01:10:23;6.60;99.90
49579;DHT22;35483;50.828;3.228;2023-03-15T01:12:52;6.60;99.90
49579;DHT22;35483;50.828;3.228;2023-03-15T01:15:19;6.60;99.90
49579;DHT22;35483;50.828;3.228;2023-03-15T01:17:46;6.60;99.90
49579;DHT22;35483;50.828;3.228;2023-03-15T01:20:13;6.60;99.90
49579;DHT22;35483;50.828;3.228;2023-03-15T01:22:39;6.70;99.90
49579;DHT22;35483;50.828;3.228;2023-03-15T01:25:07;6.70;99.90
49579;DHT22;35483;50.828;3.228;2023-03-15T01:27:34;6.80;99.90
49579;DHT22;35483;50.828;3.228;2023-03-15T01:29:59;6.80;99.90
49579;DHT22;35483;50.828;3.228;2023-03-15T01:32:26;6.90;99.90
49579;DHT22;35483;50.828;3.228;2023-03-15T01:34:51;6.90;99.90
49579;DHT22;35483;50.828;3.228;2023-03-15T01:37:19;6.90;99.90
49579;DHT22;35483;50.828;3.228;2023-03-15T01:39:50;6.90;99.90
49579;DHT22;35483;50.828;3.228;2023-03-15T01:42:16;6.90;99.90
49579;DHT22;35483;50.828;3.228;2023-03-15T01:44:56;6.80;99.90
49579;DHT22;35483;50.828;3.228;2023-03-15T01:47:23;6.80;99.90
49579;DHT22;35483;50.828;3.228;2023-03-15T01:50:00;6.70;99.90
49579;DHT22;35483;50.828;3.228;2023-03-15T01:52:35;6.70;99.90
49579;DHT22;35483;50.828;3.228;2023-03-15T01:55:08;6.70;99.90
49579;DHT22;35483;50.828;3.228;2023-03-15T01:57:40;6.70;99.90
49579;DHT22;35483;50.828;3.228;2023-03-15T02:00:09;6.70;99.90
49579;DHT22;35483;50.828;3.228;2023-03-15T02:02:40;6.80;99.90
49579;DHT22;35483;50.828;3.228;2023-03-15T02:05:16;6.80;99.90
49579;DHT22;35483;50.828;3.228;2023-03-15T02:07:45;6.70;99.90
49579;DHT22;35483;50.828;3.228;2023-03-15T02:10:36;6.70;99.90
49579;DHT22;35483;50.828;3.228;2023-03-15T02:13:06;6.70;99.90
49579;DHT22;35483;50.828;3.228;2023-03-15T02:15:32;6.70;99.90
49579;DHT22;35483;50.828;3.228;2023-03-15T02:17:58;6.70;99.90
49579;DHT22;35483;50.828;3.228;2023-03-15T02:23:08;6.70;99.90
49579;DHT22;35483;50.828;3.228;2023-03-15T02:28:12;6.70;99.90
49579;DHT22;35483;50.828;3.228;2023-03-15T02:30:41;6.60;99.90
49579;DHT22;35483;50.828;3.228;2023-03-15T02:33:20;6.60;99.90
49579;DHT22;35483;50.828;3.228;2023-03-15T02:35:48;6.60;99.90
49579;DHT22;35483;50.828;3.228;2023-03-15T02:38:16;6.60;99.90
49579;DHT22;35483;50.828;3.228;2023-03-15T02:40:43;6.60;99.90
49579;DHT22;35483;50.828;3.228;2023-03-15T02:43:15;6.60;99.90
49579;DHT22;35483;50.828;3.228;2023-03-15T02:45:43;6.60;99.90
49579;DHT22;35483;50.828;3.228;2023-03-15T02:48:16;6.60;99.90
49579;DHT22;35483;50.828;3.228;2023-03-15T02:50:43;6.60;99.90
49579;DHT22;35483;50.828;3.228;2023-03-15T02:53:09;6.50;99.90
49579;DHT22;35483;50.828;3.228;2023-03-15T02:55:38;6.50;99.90
49579;DHT22;35483;50.828;3.228;2023-03-15T02:58:04;6.60;99.90
49579;DHT22;35483;50.828;3.228;2023-03-15T03:00:30;6.60;99.90
49579;DHT22;35483;50.828;3.228;2023-03-15T03:02:57;6.60;99.90
49579;DHT22;35483;50.828;3.228;2023-03-15T03:05:23;6.70;99.90
49579;DHT22;35483;50.828;3.228;2023-03-15T03:07:49;6.70;99.90
49579;DHT22;35483;50.828;3.228;2023-03-15T03:10:17;6.60;99.90
49579;DHT22;35483;50.828;3.228;2023-03-15T03:12:44;6.70;99.90
49579;DHT22;35483;50.828;3.228;2023-03-15T03:15:10;6.70;99.90
49579;DHT22;35483;50.828;3.228;2023-03-15T03:17:36;6.70;99.90
49579;DHT22;35483;50.828;3.228;2023-03-15T03:20:08;6.70;99.90
49579;DHT22;35483;50.828;3.228;2023-03-15T03:22:35;6.70;99.90
49579;DHT22;35483;50.828;3.228;2023-03-15T03:25:05;6.70;99.90
49579;DHT22;35483;50.828;3.228;2023-03-15T03:27:32;6.60;99.90
49579;DHT22;35483;50.828;3.228;2023-03-15T03:30:06;6.60;99.90
49579;DHT22;35483;50.828;3.228;2023-03-15T03:32:32;6.40;99.90
49579;DHT22;35483;50.828;3.228;2023-03-15T03:35:00;6.40;99.90
49579;DHT22;35483;50.828;3.228;2023-03-15T03:37:26;6.40;99.90
49579;DHT22;35483;50.828;3.228;2023-03-15T03:39:56;6.40;99.90
49579;DHT22;35483;50.828;3.228;2023-03-15T03:42:22;6.60;99.90
49579;DHT22;35483;50.828;3.228;2023-03-15T03:44:48;6.60;99.90
49579;DHT22;35483;50.828;3.228;2023-03-15T03:47:18;6.50;99.90
49579;DHT22;35483;50.828;3.228;2023-03-15T03:49:45;6.60;99.90
49579;DHT22;35483;50.828;3.228;2023-03-15T03:52:10;6.50;99.90
49579;DHT22;35483;50.828;3.228;2023-03-15T03:54:39;6.50;99.90
49579;DHT22;35483;50.828;3.228;2023-03-15T03:57:09;6.40;99.90
49579;DHT22;35483;50.828;3.228;2023-03-15T03:59:35;6.30;99.90
49579;DHT22;35483;50.828;3.228;2023-03-15T04:02:00;6.40;99.90
49579;DHT22;35483;50.828;3.228;2023-03-15T04:04:29;6.40;99.90
49579;DHT22;35483;50.828;3.228;2023-03-15T04:06:55;6.40;99.90
49579;DHT22;35483;50.828;3.228;2023-03-15T04:09:24;6.50;99.90
49579;DHT22;35483;50.828;3.228;2023-03-15T04:11:50;6.50;99.90
49579;DHT22;35483;50.828;3.228;2023-03-15T04:14:17;6.50;99.90
49579;DHT22;35483;50.828;3.228;2023-03-15T04:16:49;6.50;99.90
49579;DHT22;35483;50.828;3.228;2023-03-15T04:19:16;6.50;99.90
49579;DHT22;35483;50.828;3.228;2023-03-15T04:21:42;6.50;99.90
49579;DHT22;35483;50.828;3.228;2023-03-15T04:24:12;6.50;99.90
49579;DHT22;35483;50.828;3.228;2023-03-15T04:26:38;6.60;99.90
49579;DHT22;35483;50.828;3.228;2023-03-15T04:29:04;6.60;99.90
49579;DHT22;35483;50.828;3.228;2023-03-15T04:31:31;6.50;99.90
49579;DHT22;35483;50.828;3.228;2023-03-15T04:34:02;6.50;99.90
49579;DHT22;35483;50.828;3.228;2023-03-15T04:36:28;6.50;99.90
49579;DHT22;35483;50.828;3.228;2023-03-15T04:38:56;6.30;99.90
49579;DHT22;35483;50.828;3.228;2023-03-15T04:41:32;6.20;99.90
49579;DHT22;35483;50.828;3.228;2023-03-15T04:44:01;6.20;99.90
49579;DHT22;35483;50.828;3.228;2023-03-15T04:46:29;6.10;99.90
49579;DHT22;35483;50.828;3.228;2023-03-15T04:48:59;6.10;99.90
49579;DHT22;35483;50.828;3.228;2023-03-15T04:51:28;6.00;99.90
49579;DHT22;35483;50.828;3.228;2023-03-15T04:53:55;5.90;99.90
49579;DHT22;35483;50.828;3.228;2023-03-15T04:56:20;5.80;99.90
49579;DHT22;35483;50.828;3.228;2023-03-15T04:58:49;5.70;99.90
49579;DHT22;35483;50.828;3.228;2023-03-15T05:01:27;5.70;99.90
49579;DHT22;35483;50.828;3.228;2023-03-15T05:03:53;5.60;99.90
49579;DHT22;35483;50.828;3.228;2023-03-15T05:06:19;5.40;99.90
49579;DHT22;35483;50.828;3.228;2023-03-15T05:08:44;5.30;99.90
49579;DHT22;35483;50.828;3.228;2023-03-15T05:11:11;5.30;99.90
49579;DHT22;35483;50.828;3.228;2023-03-15T05:13:37;5.20;99.90
49579;DHT22;35483;50.828;3.228;2023-03-15T05:16:04;5.20;99.90
49579;DHT22;35483;50.828;3.228;2023-03-15T05:18:33;5.20;99.90
49579;DHT22;35483;50.828;3.228;2023-03-15T05:20:59;5.20;99.90
49579;DHT22;35483;50.828;3.228;2023-03-15T05:23:27;5.20;99.90
49579;DHT22;35483;50.828;3.228;2023-03-15T05:25:56;5.20;99.90
49579;DHT22;35483;50.828;3.228;2023-03-15T05:28:23;5.20;99.90
49579;DHT22;35483;50.828;3.228;2023-03-15T05:30:51;5.20;99.90
49579;DHT22;35483;50.828;3.228;2023-03-15T05:33:19;5.10;99.90
49579;DHT22;35483;50.828;3.228;2023-03-15T05:35:47;5.00;99.90
49579;DHT22;35483;50.828;3.228;2023-03-15T05:38:13;4.90;99.90
49579;DHT22;35483;50.828;3.228;2023-03-15T05:40:44;4.80;99.90
49579;DHT22;35483;50.828;3.228;2023-03-15T05:43:11;4.70;99.90
49579;DHT22;35483;50.828;3.228;2023-03-15T05:45:39;4.70;99.90
49579;DHT22;35483;50.828;3.228;2023-03-15T05:48:07;4.70;99.90
49579;DHT22;35483;50.828;3.228;2023-03-15T05:50:32;4.70;99.90
49579;DHT22;35483;50.828;3.228;2023-03-15T05:52:59;4.60;99.90
49579;DHT22;35483;50.828;3.228;2023-03-15T05:55:27;4.60;99.90
49579;DHT22;35483;50.828;3.228;2023-03-15T05:57:54;4.60;99.90
49579;DHT22;35483;50.828;3.228;2023-03-15T06:00:20;4.50;99.90
49579;DHT22;35483;50.828;3.228;2023-03-15T06:02:46;4.50;99.90
49579;DHT22;35483;50.828;3.228;2023-03-15T06:05:12;4.40;99.90
49579;DHT22;35483;50.828;3.228;2023-03-15T06:07:39;4.50;99.90
49579;DHT22;35483;50.828;3.228;2023-03-15T06:10:06;4.50;99.90
49579;DHT22;35483;50.828;3.228;2023-03-15T06:12:35;4.40;99.90
49579;DHT22;35483;50.828;3.228;2023-03-15T06:15:04;4.40;99.90
49579;DHT22;35483;50.828;3.228;2023-03-15T06:17:31;4.40;99.90
49579;DHT22;35483;50.828;3.228;2023-03-15T06:20:00;4.40;99.90
49579;DHT22;35483;50.828;3.228;2023-03-15T06:22:27;4.40;99.90
49579;DHT22;35483;50.828;3.228;2023-03-15T06:24:59;4.40;99.90
49579;DHT22;35483;50.828;3.228;2023-03-15T06:27:24;4.30;99.90
49579;DHT22;35483;50.828;3.228;2023-03-15T06:29:50;4.30;99.90
49579;DHT22;35483;50.828;3.228;2023-03-15T06:32:16;4.30;99.90
49579;DHT22;35483;50.828;3.228;2023-03-15T06:34:41;4.20;99.90
49579;DHT22;35483;50.828;3.228;2023-03-15T06:37:07;4.20;99.90
49579;DHT22;35483;50.828;3.228;2023-03-15T06:39:33;4.30;99.90
49579;DHT22;35483;50.828;3.228;2023-03-15T06:41:59;4.30;99.90
49579;DHT22;35483;50.828;3.228;2023-03-15T06:44:27;4.30;99.90
49579;DHT22;35483;50.828;3.228;2023-03-15T06:46:53;4.30;99.90
49579;DHT22;35483;50.828;3.228;2023-03-15T06:49:19;4.40;99.90
49579;DHT22;35483;50.828;3.228;2023-03-15T06:51:44;4.40;99.90
49579;DHT22;35483;50.828;3.228;2023-03-15T06:54:10;4.40;99.90
49579;DHT22;35483;50.828;3.228;2023-03-15T06:56:36;4.40;99.90
49579;DHT22;35483;50.828;3.228;2023-03-15T06:59:03;4.40;99.90
49579;DHT22;35483;50.828;3.228;2023-03-15T07:01:29;4.50;99.90
49579;DHT22;35483;50.828;3.228;2023-03-15T07:03:55;4.50;99.90
49579;DHT22;35483;50.828;3.228;2023-03-15T07:06:20;4.60;99.90
49579;DHT22;35483;50.828;3.228;2023-03-15T07:08:46;4.60;99.90
49579;DHT22;35483;50.828;3.228;2023-03-15T07:11:12;4.60;99.90
49579;DHT22;35483;50.828;3.228;2023-03-15T07:13:38;4.70;99.90
49579;DHT22;35483;50.828;3.228;2023-03-15T07:16:03;4.80;99.90
49579;DHT22;35483;50.828;3.228;2023-03-15T07:18:34;4.80;99.90
49579;DHT22;35483;50.828;3.228;2023-03-15T07:21:01;4.90;99.90
49579;DHT22;35483;50.828;3.228;2023-03-15T07:23:27;4.90;99.90
49579;DHT22;35483;50.828;3.228;2023-03-15T07:25:54;5.00;99.90
49579;DHT22;35483;50.828;3.228;2023-03-15T07:28:20;5.00;99.90
49579;DHT22;35483;50.828;3.228;2023-03-15T07:31:03;5.10;99.90
49579;DHT22;35483;50.828;3.228;2023-03-15T07:33:31;5.20;99.90
49579;DHT22;35483;50.828;3.228;2023-03-15T07:35:57;5.20;99.90
49579;DHT22;35483;50.828;3.228;2023-03-15T07:38:24;5.20;99.90
49579;DHT22;35483;50.828;3.228;2023-03-15T07:40:51;5.30;99.90
49579;DHT22;35483;50.828;3.228;2023-03-15T07:43:17;5.30;99.90
49579;DHT22;35483;50.828;3.228;2023-03-15T07:45:43;5.40;99.90
49579;DHT22;35483;50.828;3.228;2023-03-15T07:48:09;5.40;99.90
49579;DHT22;35483;50.828;3.228;2023-03-15T07:50:35;5.40;99.90
49579;DHT22;35483;50.828;3.228;2023-03-15T07:53:03;5.40;99.90
49579;DHT22;35483;50.828;3.228;2023-03-15T07:55:28;5.40;99.90
49579;DHT22;35483;50.828;3.228;2023-03-15T07:57:54;5.50;99.90
49579;DHT22;35483;50.828;3.228;2023-03-15T08:00:20;5.50;99.90
49579;DHT22;35483;50.828;3.228;2023-03-15T08:02:47;5.60;99.90
49579;DHT22;35483;50.828;3.228;2023-03-15T08:05:12;5.60;99.90
49579;DHT22;35483;50.828;3.228;2023-03-15T08:07:38;5.60;99.90
49579;DHT22;35483;50.828;3.228;2023-03-15T08:10:05;5.70;99.90
49579;DHT22;35483;50.828;3.228;2023-03-15T08:12:31;5.70;99.90
49579;DHT22;35483;50.828;3.228;2023-03-15T08:14:59;5.80;99.90
49579;DHT22;35483;50.828;3.228;2023-03-15T08:17:25;5.80;99.90
49579;DHT22;35483;50.828;3.228;2023-03-15T08:19:51;5.80;99.90
49579;DHT22;35483;50.828;3.228;2023-03-15T08:22:16;5.90;99.90
49579;DHT22;35483;50.828;3.228;2023-03-15T08:24:42;5.90;99.90
49579;DHT22;35483;50.828;3.228;2023-03-15T08:27:09;5.90;99.90
49579;DHT22;35483;50.828;3.228;2023-03-15T08:29:35;6.00;99.90
49579;DHT22;35483;50.828;3.228;2023-03-15T08:32:01;6.00;99.90
49579;DHT22;35483;50.828;3.228;2023-03-15T08:34:27;6.10;99.90
49579;DHT22;35483;50.828;3.228;2023-03-15T08:36:53;6.00;99.90
49579;DHT22;35483;50.828;3.228;2023-03-15T08:39:18;6.10;99.90
49579;DHT22;35483;50.828;3.228;2023-03-15T08:41:44;6.20;99.90
49579;DHT22;35483;50.828;3.228;2023-03-15T08:44:11;6.20;99.90
49579;DHT22;35483;50.828;3.228;2023-03-15T08:46:37;6.30;99.90
49579;DHT22;35483;50.828;3.228;2023-03-15T08:49:03;6.30;99.90
49579;DHT22;35483;50.828;3.228;2023-03-15T08:51:28;6.40;99.90
49579;DHT22;35483;50.828;3.228;2023-03-15T08:53:55;6.50;99.90
49579;DHT22;35483;50.828;3.228;2023-03-15T08:56:21;6.60;99.90
49579;DHT22;35483;50.828;3.228;2023-03-15T08:58:47;6.70;99.90
49579;DHT22;35483;50.828;3.228;2023-03-15T09:01:13;6.80;99.90
49579;DHT22;35483;50.828;3.228;2023-03-15T09:03:39;6.80;99.90
49579;DHT22;35483;50.828;3.228;2023-03-15T09:06:07;6.90;99.90
49579;DHT22;35483;50.828;3.228;2023-03-15T09:08:33;6.90;99.90
49579;DHT22;35483;50.828;3.228;2023-03-15T09:10:59;7.00;99.90
49579;DHT22;35483;50.828;3.228;2023-03-15T09:13:26;7.00;99.90
49579;DHT22;35483;50.828;3.228;2023-03-15T09:15:53;7.10;99.90
49579;DHT22;35483;50.828;3.228;2023-03-15T09:18:19;7.10;99.90
49579;DHT22;35483;50.828;3.228;2023-03-15T09:20:45;7.10;99.90
49579;DHT22;35483;50.828;3.228;2023-03-15T09:23:12;7.10;99.90
49579;DHT22;35483;50.828;3.228;2023-03-15T09:25:38;7.20;99.90
49579;DHT22;35483;50.828;3.228;2023-03-15T09:28:05;7.30;99.90
49579;DHT22;35483;50.828;3.228;2023-03-15T09:30:32;7.50;99.90
49579;DHT22;35483;50.828;3.228;2023-03-15T09:32:58;7.60;99.90
49579;DHT22;35483;50.828;3.228;2023-03-15T09:35:25;7.70;99.90
49579;DHT22;35483;50.828;3.228;2023-03-15T09:37:50;7.80;99.90
49579;DHT22;35483;50.828;3.228;2023-03-15T09:40:30;7.90;99.90
49579;DHT22;35483;50.828;3.228;2023-03-15T09:51:13;8.40;99.90
49579;DHT22;35483;50.828;3.228;2023-03-15T09:53:44;8.50;99.90
49579;DHT22;35483;50.828;3.228;2023-03-15T09:58:48;8.50;99.90
49579;DHT22;35483;50.828;3.228;2023-03-15T10:01:17;8.50;99.90
49579;DHT22;35483;50.828;3.228;2023-03-15T10:03:49;8.50;99.90
49579;DHT22;35483;50.828;3.228;2023-03-15T10:06:21;8.50;99.90
49579;DHT22;35483;50.828;3.228;2023-03-15T10:08:57;8.50;99.90
49579;DHT22;35483;50.828;3.228;2023-03-15T10:11:33;8.60;99.90
49579;DHT22;35483;50.828;3.228;2023-03-15T10:14:12;8.60;99.90
49579;DHT22;35483;50.828;3.228;2023-03-15T10:16:45;8.70;99.90
49579;DHT22;35483;50.828;3.228;2023-03-15T10:19:44;8.70;99.90
49579;DHT22;35483;50.828;3.228;2023-03-15T10:24:58;8.60;99.90
49579;DHT22;35483;50.828;3.228;2023-03-15T10:27:46;8.60;99.90
49579;DHT22;35483;50.828;3.228;2023-03-15T10:30:21;8.70;97.30
49579;DHT22;35483;50.828;3.228;2023-03-15T10:33:04;8.80;99.90
49579;DHT22;35483;50.828;3.228;2023-03-15T10:35:31;8.90;98.30
49579;DHT22;35483;50.828;3.228;2023-03-15T10:37:57;9.10;99.90
49579;DHT22;35483;50.828;3.228;2023-03-15T10:40:43;9.10;99.80
49579;DHT22;35483;50.828;3.228;2023-03-15T10:43:19;9.20;97.30
49579;DHT22;35483;50.828;3.228;2023-03-15T10:48:22;9.40;98.90
49579;DHT22;35483;50.828;3.228;2023-03-15T10:50:50;9.50;99.50
49579;DHT22;35483;50.828;3.228;2023-03-15T10:53:18;9.50;98.90
49579;DHT22;35483;50.828;3.228;2023-03-15T10:55:46;9.60;98.50
49579;DHT22;35483;50.828;3.228;2023-03-15T10:58:27;9.60;99.30
49579;DHT22;35483;50.828;3.228;2023-03-15T11:01:03;9.70;97.70
49579;DHT22;35483;50.828;3.228;2023-03-15T11:03:32;9.70;97.20
49579;DHT22;35483;50.828;3.228;2023-03-15T11:05:58;9.60;98.60
49579;DHT22;35483;50.828;3.228;2023-03-15T11:08:41;9.60;98.80
49579;DHT22;35483;50.828;3.228;2023-03-15T11:11:07;9.50;98.20
49579;DHT22;35483;50.828;3.228;2023-03-15T11:13:35;9.40;98.80
49579;DHT22;35483;50.828;3.228;2023-03-15T11:18:57;9.30;99.00
49579;DHT22;35483;50.828;3.228;2023-03-15T11:21:35;9.30;98.30
49579;DHT22;35483;50.828;3.228;2023-03-15T11:24:04;9.30;97.30
49579;DHT22;35483;50.828;3.228;2023-03-15T11:26:38;9.30;98.80
49579;DHT22;35483;50.828;3.228;2023-03-15T11:29:13;9.30;96.30
49579;DHT22;35483;50.828;3.228;2023-03-15T11:31:39;9.30;98.30
49579;DHT22;35483;50.828;3.228;2023-03-15T11:34:11;9.30;98.60
49579;DHT22;35483;50.828;3.228;2023-03-15T11:36:42;9.30;97.80
49579;DHT22;35483;50.828;3.228;2023-03-15T11:39:14;9.50;97.90
49579;DHT22;35483;50.828;3.228;2023-03-15T11:49:47;10.00;95.90
49579;DHT22;35483;50.828;3.228;2023-03-15T11:52:15;10.00;95.20
49579;DHT22;35483;50.828;3.228;2023-03-15T11:54:45;10.00;97.00
49579;DHT22;35483;50.828;3.228;2023-03-15T11:57:48;10.10;96.50
49579;DHT22;35483;50.828;3.228;2023-03-15T12:03:34;10.20;97.30
49579;DHT22;35483;50.828;3.228;2023-03-15T12:08:50;10.20;95.00
49579;DHT22;35483;50.828;3.228;2023-03-15T12:16:28;10.30;94.80
49579;DHT22;35483;50.828;3.228;2023-03-15T12:19:09;10.30;97.00
49579;DHT22;35483;50.828;3.228;2023-03-15T12:21:40;10.40;96.90
49579;DHT22;35483;50.828;3.228;2023-03-15T12:24:30;10.40;96.20
49579;DHT22;35483;50.828;3.228;2023-03-15T12:27:19;10.40;93.10
49579;DHT22;35483;50.828;3.228;2023-03-15T12:29:47;10.50;95.90
49579;DHT22;35483;50.828;3.228;2023-03-15T12:32:21;10.50;96.60
49579;DHT22;35483;50.828;3.228;2023-03-15T12:34:56;10.60;95.90
49579;DHT22;35483;50.828;3.228;2023-03-15T12:37:45;10.60;95.90
49579;DHT22;35483;50.828;3.228;2023-03-15T12:53:33;11.00;87.10
49579;DHT22;35483;50.828;3.228;2023-03-15T12:59:41;11.00;85.00
49579;DHT22;35483;50.828;3.228;2023-03-15T13:02:25;11.00;93.10
49579;DHT22;35483;50.828;3.228;2023-03-15T13:05:24;11.00;93.30
49579;DHT22;35483;50.828;3.228;2023-03-15T13:07:55;11.00;93.10
49579;DHT22;35483;50.828;3.228;2023-03-15T13:10:38;11.00;94.50
49579;DHT22;35483;50.828;3.228;2023-03-15T13:13:10;11.10;94.20
49579;DHT22;35483;50.828;3.228;2023-03-15T13:16:06;11.10;95.10
49579;DHT22;35483;50.828;3.228;2023-03-15T13:18:55;11.10;91.90
49579;DHT22;35483;50.828;3.228;2023-03-15T13:25:00;11.10;84.70
49579;DHT22;35483;50.828;3.228;2023-03-15T13:33:26;11.40;92.30
49579;DHT22;35483;50.828;3.228;2023-03-15T13:36:01;11.50;88.70
49579;DHT22;35483;50.828;3.228;2023-03-15T13:41:29;11.30;83.60
49579;DHT22;35483;50.828;3.228;2023-03-15T13:44:00;11.30;86.80
49579;DHT22;35483;50.828;3.228;2023-03-15T13:46:30;11.30;94.30
49579;DHT22;35483;50.828;3.228;2023-03-15T13:48:56;11.30;94.50
49579;DHT22;35483;50.828;3.228;2023-03-15T13:51:31;11.20;93.90
49579;DHT22;35483;50.828;3.228;2023-03-15T13:57:07;11.20;87.60
49579;DHT22;35483;50.828;3.228;2023-03-15T13:59:57;11.30;93.80
49579;DHT22;35483;50.828;3.228;2023-03-15T14:02:34;11.40;94.60
49579;DHT22;35483;50.828;3.228;2023-03-15T14:05:06;11.50;93.80
49579;DHT22;35483;50.828;3.228;2023-03-15T14:07:41;11.40;92.60
49579;DHT22;35483;50.828;3.228;2023-03-15T14:12:47;11.30;92.20
49579;DHT22;35483;50.828;3.228;2023-03-15T14:15:35;11.20;85.80
49579;DHT22;35483;50.828;3.228;2023-03-15T14:20:38;11.20;93.60
49579;DHT22;35483;50.828;3.228;2023-03-15T14:23:13;11.10;92.00
49579;DHT22;35483;50.828;3.228;2023-03-15T14:25:41;11.00;92.60
49579;DHT22;35483;50.828;3.228;2023-03-15T14:28:11;11.00;93.70
49579;DHT22;35483;50.828;3.228;2023-03-15T14:30:40;10.90;93.30
49579;DHT22;35483;50.828;3.228;2023-03-15T14:33:23;11.00;93.10
49579;DHT22;35483;50.828;3.228;2023-03-15T14:36:02;11.00;92.80
49579;DHT22;35483;50.828;3.228;2023-03-15T14:38:36;11.10;91.90
49579;DHT22;35483;50.828;3.228;2023-03-15T14:41:29;11.20;93.00
49579;DHT22;35483;50.828;3.228;2023-03-15T14:43:59;11.20;85.70
49579;DHT22;35483;50.828;3.228;2023-03-15T14:46:26;11.20;92.90
49579;DHT22;35483;50.828;3.228;2023-03-15T14:48:54;11.30;93.20
49579;DHT22;35483;50.828;3.228;2023-03-15T14:51:23;11.30;92.50
49579;DHT22;35483;50.828;3.228;2023-03-15T14:53:52;11.40;92.70
49579;DHT22;35483;50.828;3.228;2023-03-15T14:56:19;11.40;92.10
49579;DHT22;35483;50.828;3.228;2023-03-15T14:58:45;11.40;92.60
49579;DHT22;35483;50.828;3.228;2023-03-15T15:01:18;11.40;92.40
49579;DHT22;35483;50.828;3.228;2023-03-15T15:03:59;11.40;90.70
49579;DHT22;35483;50.828;3.228;2023-03-15T15:06:35;11.50;90.10
49579;DHT22;35483;50.828;3.228;2023-03-15T15:09:04;11.50;93.00
49579;DHT22;35483;50.828;3.228;2023-03-15T15:11:38;11.50;92.50
49579;DHT22;35483;50.828;3.228;2023-03-15T15:14:14;11.40;90.20
49579;DHT22;35483;50.828;3.228;2023-03-15T15:16:43;11.40;92.40
49579;DHT22;35483;50.828;3.228;2023-03-15T15:19:13;11.50;92.30
49579;DHT22;35483;50.828;3.228;2023-03-15T15:21:42;11.50;91.20
49579;DHT22;35483;50.828;3.228;2023-03-15T15:24:15;11.50;90.80
49579;DHT22;35483;50.828;3.228;2023-03-15T15:26:44;11.50;92.20
49579;DHT22;35483;50.828;3.228;2023-03-15T15:29:14;11.40;91.70
49579;DHT22;35483;50.828;3.228;2023-03-15T15:31:43;11.40;91.90
49579;DHT22;35483;50.828;3.228;2023-03-15T15:34:11;11.40;92.10
49579;DHT22;35483;50.828;3.228;2023-03-15T15:36:43;11.50;92.40
49579;DHT22;35483;50.828;3.228;2023-03-15T15:39:22;11.50;92.50
49579;DHT22;35483;50.828;3.228;2023-03-15T15:41:50;11.50;82.90
49579;DHT22;35483;50.828;3.228;2023-03-15T15:44:19;11.50;91.80
49579;DHT22;35483;50.828;3.228;2023-03-15T15:46:46;11.50;92.30
49579;DHT22;35483;50.828;3.228;2023-03-15T15:49:12;11.50;88.80
49579;DHT22;35483;50.828;3.228;2023-03-15T15:51:44;11.50;92.50
49579;DHT22;35483;50.828;3.228;2023-03-15T15:54:21;11.40;85.60
49579;DHT22;35483;50.828;3.228;2023-03-15T15:57:02;11.30;90.30
49579;DHT22;35483;50.828;3.228;2023-03-15T15:59:28;11.30;83.90
49579;DHT22;35483;50.828;3.228;2023-03-15T16:01:55;11.30;91.60
49579;DHT22;35483;50.828;3.228;2023-03-15T16:04:22;11.20;91.30
49579;DHT22;35483;50.828;3.228;2023-03-15T16:06:52;11.20;91.50
49579;DHT22;35483;50.828;3.228;2023-03-15T16:09:21;11.20;91.40
49579;DHT22;35483;50.828;3.228;2023-03-15T16:11:47;11.20;87.60
49579;DHT22;35483;50.828;3.228;2023-03-15T16:14:14;11.20;92.50
49579;DHT22;35483;50.828;3.228;2023-03-15T16:16:43;11.30;91.90
49579;DHT22;35483;50.828;3.228;2023-03-15T16:19:08;11.20;91.60
49579;DHT22;35483;50.828;3.228;2023-03-15T16:21:46;11.20;91.90
49579;DHT22;35483;50.828;3.228;2023-03-15T16:24:15;11.20;86.00
49579;DHT22;35483;50.828;3.228;2023-03-15T16:26:43;11.20;91.50
49579;DHT22;35483;50.828;3.228;2023-03-15T16:29:18;11.10;91.30
49579;DHT22;35483;50.828;3.228;2023-03-15T16:31:48;11.10;88.40
49579;DHT22;35483;50.828;3.228;2023-03-15T16:34:17;11.10;90.90
49579;DHT22;35483;50.828;3.228;2023-03-15T16:36:46;11.10;90.80
49579;DHT22;35483;50.828;3.228;2023-03-15T16:39:14;11.10;91.40
49579;DHT22;35483;50.828;3.228;2023-03-15T16:41:40;11.00;90.90
49579;DHT22;35483;50.828;3.228;2023-03-15T16:44:15;11.00;91.20
49579;DHT22;35483;50.828;3.228;2023-03-15T16:46:41;11.00;84.20
49579;DHT22;35483;50.828;3.228;2023-03-15T16:49:10;10.90;91.20
49579;DHT22;35483;50.828;3.228;2023-03-15T16:51:46;10.90;91.30
49579;DHT22;35483;50.828;3.228;2023-03-15T16:54:16;10.80;90.00
49579;DHT22;35483;50.828;3.228;2023-03-15T16:56:42;10.70;90.90
49579;DHT22;35483;50.828;3.228;2023-03-15T16:59:13;10.70;91.10
49579;DHT22;35483;50.828;3.228;2023-03-15T17:01:39;10.70;91.30
49579;DHT22;35483;50.828;3.228;2023-03-15T17:04:05;10.70;92.10
49579;DHT22;35483;50.828;3.228;2023-03-15T17:06:33;10.60;91.30
49579;DHT22;35483;50.828;3.228;2023-03-15T17:09:04;10.60;91.50
49579;DHT22;35483;50.828;3.228;2023-03-15T17:11:37;10.50;89.00
49579;DHT22;35483;50.828;3.228;2023-03-15T17:14:05;10.40;90.90
49579;DHT22;35483;50.828;3.228;2023-03-15T17:16:32;10.40;91.60
49579;DHT22;35483;50.828;3.228;2023-03-15T17:18:57;10.30;91.40